Time;durP1;ratioP1;P1;durP2;ratioP2;P2;SDS_P1;SDS_P2;PMS_P1;PMS_P2;Temp;Humidity;BMP_temperature;BMP_pressure;BME280_temperature;BME280_humidity;BME280_pressure;Samples;Min_cycle;Max_cycle;Signal;HPM_P1;HPM_P2
2020/12/11 00:01:57;;;;;;;3.63;1.88;;;19.30;37.80;;;;;;5034913;28;20041;-74
2020/12/11 00:04:22;;;;;;;4.65;2.75;;;19.30;38.40;;;;;;5052638;28;20473;-74
2020/12/11 00:06:48;;;;;;;7.82;4.18;;;19.30;38.40;;;;;;5044639;28;20039;-73
2020/12/11 00:09:15;;;;;;;1.10;0.82;;;19.30;37.90;;;;;;5069601;28;20047;-75
2020/12/11 00:11:40;;;;;;;12.50;5.78;;;19.30;37.90;;;;;;5063504;28;20059;-75
2020/12/11 00:14:06;;;;;;;8.75;3.20;;;19.30;37.80;;;;;;5037304;28;20474;-75
2020/12/11 00:16:31;;;;;;;0.82;0.80;;;19.20;37.80;;;;;;5071484;28;20032;-76
2020/12/11 00:18:57;;;;;;;2.65;1.85;;;19.20;37.70;;;;;;5052153;28;20036;-75
2020/12/11 00:21:22;;;;;;;9.68;5.05;;;19.20;38.40;;;;;;5038598;28;20037;-72
2020/12/11 00:23:48;;;;;;;1.55;0.70;;;19.20;37.60;;;;;;5048247;28;20071;-72
2020/12/11 00:26:15;;;;;;;8.02;3.83;;;19.20;37.70;;;;;;5034903;28;20028;-73
2020/12/11 00:28:41;;;;;;;2.03;1.35;;;19.20;37.60;;;;;;5061675;28;20013;-73
2020/12/11 00:31:06;;;;;;;2.33;1.42;;;19.20;37.60;;;;;;5072459;28;20552;-73
2020/12/11 00:33:32;;;;;;;3.42;2.05;;;19.20;37.80;;;;;;5051619;28;20037;-73
2020/12/11 00:35:58;;;;;;;2.80;1.77;;;19.20;37.40;;;;;;5028887;28;20102;-73
2020/12/11 00:38:23;;;;;;;2.08;1.75;;;19.10;37.60;;;;;;5068432;28;20029;-73
2020/12/11 00:40:49;;;;;;;2.78;1.33;;;19.10;37.50;;;;;;5072776;28;20061;-73
2020/12/11 00:43:14;;;;;;;1.25;0.82;;;19.10;37.50;;;;;;5037820;28;20439;-73
2020/12/11 00:45:46;;;;;;;3.28;1.83;;;19.10;37.70;;;;;;5049630;28;20103;-73
2020/12/11 00:48:12;;;;;;;1.15;1.05;;;19.00;37.60;;;;;;5039395;28;20407;-73
2020/12/11 00:50:37;;;;;;;2.08;1.67;;;19.00;37.30;;;;;;5056859;28;20033;-73
2020/12/11 00:53:03;;;;;;;2.33;1.73;;;19.00;36.80;;;;;;5047999;28;20029;-73
2020/12/11 00:55:28;;;;;;;2.42;1.00;;;18.90;36.80;;;;;;5038497;28;20067;-74
2020/12/11 00:57:54;;;;;;;8.02;4.35;;;19.00;37.10;;;;;;5037837;28;20044;-74
2020/12/11 01:00:20;;;;;;;0.70;0.70;;;19.00;37.00;;;;;;5036336;28;20174;-74
2020/12/11 01:02:45;;;;;;;5.03;0.80;;;18.90;36.70;;;;;;5057438;28;20076;-72
2020/12/11 01:05:11;;;;;;;2.95;1.48;;;18.90;36.90;;;;;;5040129;28;20154;-73
2020/12/11 01:07:36;;;;;;;5.10;2.90;;;18.90;36.60;;;;;;5038064;28;20041;-74
2020/12/11 01:10:03;;;;;;;3.50;1.60;;;18.90;36.70;;;;;;5050404;28;20029;-74
2020/12/11 01:12:28;;;;;;;0.98;0.68;;;18.90;37.10;;;;;;5058266;28;20024;-72
2020/12/11 01:14:54;;;;;;;1.42;0.52;;;18.80;37.10;;;;;;5042295;28;20040;-72
2020/12/11 01:17:20;;;;;;;7.45;4.00;;;18.80;37.20;;;;;;5060276;28;20032;-73
2020/12/11 01:19:45;;;;;;;0.65;0.52;;;18.80;37.40;;;;;;5055273;28;20029;-74
2020/12/11 01:22:11;;;;;;;4.38;2.38;;;18.80;37.40;;;;;;5055638;28;20057;-74
2020/12/11 01:24:37;;;;;;;10.88;5.32;;;18.80;38.30;;;;;;5039411;28;20045;-74
2020/12/11 01:27:02;;;;;;;2.53;1.20;;;18.80;37.60;;;;;;5029486;28;20047;-74
2020/12/11 01:29:28;;;;;;;3.75;1.52;;;18.80;37.60;;;;;;5037319;28;20033;-72
2020/12/11 01:32:00;;;;;;;7.85;2.20;;;18.80;37.60;;;;;;5037479;28;20018;-74
2020/12/11 01:34:26;;;;;;;2.42;0.95;;;18.80;37.80;;;;;;5055689;28;20039;-74
2020/12/11 01:36:52;;;;;;;2.85;1.55;;;18.80;37.70;;;;;;5038076;28;20031;-74
2020/12/11 01:39:17;;;;;;;5.15;3.35;;;18.80;37.20;;;;;;5052392;28;20419;-73
2020/12/11 01:41:43;;;;;;;11.30;7.80;;;18.80;36.90;;;;;;5073724;28;20031;-74
2020/12/11 01:44:09;;;;;;;5.85;2.38;;;18.80;37.20;;;;;;5048295;28;20107;-73
2020/12/11 01:46:39;;;;;;;8.68;4.15;;;18.80;37.10;;;;;;5074686;28;20449;-73
2020/12/11 01:49:08;;;;;;;4.07;2.35;;;18.80;36.70;;;;;;5054907;28;20033;-73
2020/12/11 01:51:34;;;;;;;1.30;0.98;;;18.80;37.10;;;;;;5037677;28;20032;-74
2020/12/11 01:54:00;;;;;;;1.77;0.75;;;18.80;36.60;;;;;;5049363;28;20428;-74
2020/12/11 01:56:26;;;;;;;7.65;2.83;;;18.80;36.90;;;;;;5055535;28;20040;-74
2020/12/11 01:59:09;;;;;;;4.00;1.98;;;18.70;36.70;;;;;;5055278;28;20480;-73
2020/12/11 02:01:35;;;;;;;2.50;1.23;;;18.70;36.20;;;;;;5036973;28;20036;-73
2020/12/11 02:04:01;;;;;;;7.38;4.03;;;18.70;36.00;;;;;;5054522;28;20045;-74
2020/12/11 02:06:27;;;;;;;2.42;1.15;;;18.70;35.80;;;;;;5046069;28;20052;-73
2020/12/11 02:08:56;;;;;;;6.65;0.75;;;18.70;35.90;;;;;;5071371;28;20042;-73
2020/12/11 02:11:22;;;;;;;8.93;5.60;;;18.70;36.10;;;;;;5043114;28;20107;-72
2020/12/11 02:13:47;;;;;;;2.60;1.27;;;18.60;36.00;;;;;;5036964;28;20063;-74
2020/12/11 02:16:13;;;;;;;13.60;5.93;;;18.60;35.50;;;;;;5042065;28;20039;-74
2020/12/11 02:18:41;;;;;;;0.73;0.65;;;18.60;35.60;;;;;;5074070;28;20059;-73
2020/12/11 02:21:10;;;;;;;5.53;2.53;;;18.60;36.60;;;;;;5051648;28;20029;-72
2020/12/11 02:23:36;;;;;;;1.13;0.47;;;18.60;36.60;;;;;;5052907;28;20077;-72
2020/12/11 02:26:01;;;;;;;4.22;1.55;;;18.60;36.10;;;;;;5041404;28;20445;-72
2020/12/11 02:28:34;;;;;;;8.02;3.97;;;18.60;36.30;;;;;;5036458;28;20032;-72
2020/12/11 02:31:00;;;;;;;0.85;0.80;;;18.60;36.20;;;;;;5037000;28;20029;-72
2020/12/11 02:33:25;;;;;;;4.20;2.50;;;18.60;36.60;;;;;;5055927;28;20021;-71
2020/12/11 02:35:51;;;;;;;1.95;1.10;;;18.50;36.30;;;;;;5054183;28;20025;-71
2020/12/11 02:38:16;;;;;;;0.43;0.43;;;18.50;35.80;;;;;;5036690;28;20530;-71
2020/12/11 02:40:53;;;;;;;1.35;1.10;;;18.50;35.60;;;;;;5041110;28;20040;-72
2020/12/11 02:43:19;;;;;;;4.85;2.63;;;18.50;36.20;;;;;;5048455;28;20463;-72
2020/12/11 02:45:45;;;;;;;3.95;2.28;;;18.50;36.80;;;;;;5053742;28;20025;-71
2020/12/11 02:48:11;;;;;;;5.18;2.28;;;18.50;36.70;;;;;;5036477;28;20074;-72
2020/12/11 02:50:37;;;;;;;5.45;2.88;;;18.50;37.00;;;;;;5046585;28;20077;-71
2020/12/11 02:53:02;;;;;;;3.80;2.40;;;18.50;37.00;;;;;;5044218;28;20068;-72
2020/12/11 02:55:28;;;;;;;1.83;0.80;;;18.50;36.60;;;;;;5035354;28;20049;-71
2020/12/11 02:57:54;;;;;;;8.73;5.22;;;18.50;37.50;;;;;;5054514;28;20051;-72
2020/12/11 03:00:19;;;;;;;0.93;0.80;;;18.50;36.40;;;;;;5054323;28;20038;-72
2020/12/11 03:02:45;;;;;;;2.05;1.42;;;18.40;37.00;;;;;;5065315;28;20047;-74
2020/12/11 03:05:10;;;;;;;6.80;3.50;;;18.40;36.50;;;;;;5047132;28;20036;-74
2020/12/11 03:07:36;;;;;;;2.72;0.93;;;18.40;36.90;;;;;;5068535;28;20083;-74
2020/12/11 03:10:01;;;;;;;2.30;1.42;;;18.40;37.50;;;;;;5071261;28;20020;-74
2020/12/11 03:12:27;;;;;;;0.80;0.57;;;18.40;36.40;;;;;;5059370;28;20020;-75
2020/12/11 03:15:17;;;;;;;1.45;0.93;;;18.40;36.80;;;;;;5058898;28;20487;-75
2020/12/11 03:17:55;;;;;;;2.00;1.38;;;18.50;36.60;;;;;;5054633;28;20021;-75
2020/12/11 03:20:24;;;;;;;2.65;1.60;;;18.40;36.80;;;;;;5073763;28;20151;-74
2020/12/11 03:22:53;;;;;;;2.03;1.60;;;18.50;36.60;;;;;;5071173;28;20453;-74
2020/12/11 03:25:19;;;;;;;3.88;1.52;;;18.50;36.60;;;;;;5036246;28;20111;-74
2020/12/11 03:27:44;;;;;;;1.40;0.80;;;18.40;36.20;;;;;;5034919;28;20040;-74
2020/12/11 03:30:10;;;;;;;1.10;0.90;;;18.40;36.40;;;;;;5053534;28;20492;-74
2020/12/11 03:33:09;;;;;;;3.30;1.80;;;18.40;36.20;;;;;;5044587;28;20175;-74
2020/12/11 03:35:36;;;;;;;2.10;1.00;;;18.40;36.30;;;;;;5053646;28;20024;-71
2020/12/11 03:38:03;;;;;;;3.53;2.03;;;18.40;36.80;;;;;;5034644;28;20573;-71
2020/12/11 03:40:28;;;;;;;0.43;0.35;;;18.40;36.60;;;;;;5035761;28;20167;-71
2020/12/11 03:42:54;;;;;;;0.75;0.60;;;18.40;36.20;;;;;;5053156;28;20120;-71
2020/12/11 03:45:19;;;;;;;2.83;1.13;;;18.40;36.10;;;;;;5053204;28;20036;-73
2020/12/11 03:47:45;;;;;;;2.92;1.10;;;18.40;36.30;;;;;;5035188;28;20021;-74
2020/12/11 03:50:11;;;;;;;1.50;1.20;;;18.30;36.00;;;;;;5069544;28;20024;-73
2020/12/11 03:52:36;;;;;;;1.83;1.08;;;18.30;36.50;;;;;;5052922;28;20025;-73
2020/12/11 03:55:02;;;;;;;0.85;0.57;;;18.30;35.80;;;;;;5065887;28;20116;-73
2020/12/11 03:57:27;;;;;;;2.50;1.20;;;18.30;35.80;;;;;;5034997;28;20500;-74
2020/12/11 03:59:53;;;;;;;4.95;3.13;;;18.30;35.80;;;;;;5052663;28;20388;-74
2020/12/11 04:02:18;;;;;;;2.72;1.25;;;18.30;35.90;;;;;;5064061;28;20403;-74
2020/12/11 04:04:44;;;;;;;1.63;0.95;;;18.30;35.80;;;;;;5055859;28;20449;-74
2020/12/11 04:07:10;;;;;;;1.83;1.08;;;18.20;35.80;;;;;;5035611;28;20036;-74
2020/12/11 04:09:36;;;;;;;1.15;0.90;;;18.20;36.40;;;;;;5052390;28;20041;-74
2020/12/11 04:12:01;;;;;;;2.15;1.20;;;18.20;35.90;;;;;;5068363;28;20024;-73
2020/12/11 04:14:27;;;;;;;1.23;1.00;;;18.20;35.80;;;;;;5047545;28;20033;-73
2020/12/11 04:16:52;;;;;;;1.15;0.90;;;18.20;36.30;;;;;;5058931;28;20031;-73
2020/12/11 04:19:18;;;;;;;3.05;1.45;;;18.20;36.10;;;;;;5075621;28;20404;-72
2020/12/11 04:21:50;;;;;;;4.03;1.42;;;18.10;36.00;;;;;;5049306;28;20073;-72
2020/12/11 04:24:16;;;;;;;2.17;0.88;;;18.10;36.70;;;;;;5038438;28;20110;-72
2020/12/11 04:26:42;;;;;;;1.80;1.00;;;18.10;36.20;;;;;;5042185;28;20056;-72
2020/12/11 04:29:08;;;;;;;2.97;1.75;;;18.10;36.10;;;;;;5056035;28;20037;-72
2020/12/11 04:31:33;;;;;;;1.15;0.43;;;18.10;36.30;;;;;;5058479;28;20032;-72
2020/12/11 04:33:59;;;;;;;0.63;0.55;;;18.10;36.40;;;;;;5058176;28;20399;-72
2020/12/11 04:36:25;;;;;;;1.63;0.95;;;18.10;37.10;;;;;;5058219;28;20024;-72
2020/12/11 04:38:50;;;;;;;1.60;0.75;;;18.10;36.20;;;;;;5074885;28;20021;-72
2020/12/11 04:41:16;;;;;;;4.82;2.17;;;18.10;36.50;;;;;;5076216;28;20060;-72
2020/12/11 04:43:41;;;;;;;1.30;0.65;;;18.10;36.40;;;;;;5041054;28;20040;-72
2020/12/11 04:46:07;;;;;;;0.75;0.43;;;18.10;36.20;;;;;;5058083;28;20028;-72
2020/12/11 04:49:23;;;;;;;1.27;0.57;;;18.10;36.50;;;;;;5047029;28;20017;-72
2020/12/11 04:51:51;;;;;;;1.75;1.08;;;18.10;36.50;;;;;;5059975;28;20029;-71
2020/12/11 04:54:18;;;;;;;1.02;0.63;;;18.10;36.50;;;;;;5038190;28;20063;-72
2020/12/11 04:56:46;;;;;;;3.17;1.98;;;18.10;36.50;;;;;;5037974;28;20090;-72
2020/12/11 04:59:12;;;;;;;2.35;1.08;;;18.10;36.20;;;;;;5052821;28;20040;-72
2020/12/11 05:02:42;;;;;;;1.88;1.05;;;18.10;36.30;;;;;;5057697;28;20036;-72
2020/12/11 05:05:08;;;;;;;1.63;1.30;;;18.10;36.20;;;;;;5056110;28;20090;-72
2020/12/11 05:07:34;;;;;;;2.13;1.13;;;18.10;36.70;;;;;;5039744;28;20032;-71
2020/12/11 05:09:59;;;;;;;2.35;1.20;;;18.10;37.10;;;;;;5057944;28;20491;-71
2020/12/11 05:12:25;;;;;;;1.48;1.13;;;18.10;37.00;;;;;;5051318;28;20163;-74
2020/12/11 05:14:55;;;;;;;3.03;1.23;;;18.20;37.00;;;;;;5048136;28;20044;-74
2020/12/11 05:17:25;;;;;;;1.50;0.95;;;18.20;37.10;;;;;;5055887;28;20515;-71
2020/12/11 05:19:51;;;;;;;1.13;1.02;;;18.30;36.90;;;;;;5021453;28;20127;-71
2020/12/11 05:22:18;;;;;;;3.40;1.08;;;18.40;36.90;;;;;;5038416;28;20024;-71
2020/12/11 05:24:48;;;;;;;1.98;1.08;;;18.40;37.00;;;;;;5037150;28;20048;-71
2020/12/11 05:27:36;;;;;;;1.85;0.90;;;18.60;36.80;;;;;;5037033;28;20400;-71
2020/12/11 05:30:14;;;;;;;1.00;0.88;;;18.70;36.80;;;;;;5055319;28;20032;-71
2020/12/11 05:32:44;;;;;;;1.10;1.00;;;18.80;36.80;;;;;;5036683;28;20041;-71
2020/12/11 05:35:19;;;;;;;0.80;0.60;;;18.90;36.70;;;;;;5021033;28;20067;-74
2020/12/11 05:38:04;;;;;;;2.43;0.90;;;19.00;36.70;;;;;;5058386;28;20024;-74
2020/12/11 05:40:39;;;;;;;1.42;0.80;;;19.10;36.60;;;;;;5055382;28;20298;-74
2020/12/11 05:43:05;;;;;;;1.15;0.80;;;19.20;36.60;;;;;;5057233;28;20067;-75
2020/12/11 05:45:34;;;;;;;2.00;1.00;;;19.30;36.50;;;;;;5075757;28;20111;-74
2020/12/11 05:48:03;;;;;;;1.63;0.90;;;19.30;36.40;;;;;;5057930;28;20579;-74
2020/12/11 05:50:28;;;;;;;1.00;0.80;;;19.40;36.50;;;;;;5073566;28;20032;-74
2020/12/11 05:52:55;;;;;;;1.38;0.93;;;19.40;36.20;;;;;;5069275;28;20024;-74
2020/12/11 05:55:21;;;;;;;1.70;0.73;;;19.50;36.70;;;;;;5057292;28;20062;-74
2020/12/11 05:57:53;;;;;;;0.70;0.70;;;19.60;35.90;;;;;;5075098;28;20032;-74
2020/12/11 06:00:19;;;;;;;2.03;0.80;;;19.60;35.80;;;;;;5055610;28;20056;-74
2020/12/11 06:02:47;;;;;;;1.13;0.88;;;19.70;35.90;;;;;;5054587;28;20067;-74
2020/12/11 06:05:14;;;;;;;1.35;0.50;;;19.70;35.70;;;;;;5056177;28;20523;-74
2020/12/11 06:07:41;;;;;;;0.60;0.60;;;19.80;35.70;;;;;;5057383;28;20063;-75
2020/12/11 06:10:06;;;;;;;0.82;0.80;;;19.80;36.40;;;;;;5056604;28;20158;-75
2020/12/11 06:12:32;;;;;;;1.27;0.88;;;19.80;35.80;;;;;;5039139;28;20111;-74
2020/12/11 06:15:11;;;;;;;1.02;0.70;;;19.80;35.70;;;;;;5039713;28;20033;-75
2020/12/11 06:17:43;;;;;;;0.93;0.70;;;19.80;35.60;;;;;;5056165;28;20027;-74
2020/12/11 06:20:09;;;;;;;2.13;0.73;;;19.90;35.50;;;;;;5054123;28;20384;-73
2020/12/11 06:22:35;;;;;;;1.10;0.90;;;19.90;35.70;;;;;;5047970;28;20488;-74
2020/12/11 06:25:23;;;;;;;2.05;0.80;;;19.90;35.70;;;;;;5073072;28;20097;-74
2020/12/11 06:27:48;;;;;;;0.57;0.57;;;19.90;35.70;;;;;;5073208;28;20023;-74
2020/12/11 06:30:25;;;;;;;0.75;0.50;;;19.90;35.70;;;;;;5037230;28;20040;-74
2020/12/11 06:32:51;;;;;;;0.70;0.60;;;19.90;35.90;;;;;;5053330;28;20025;-74
2020/12/11 06:38:52;;;;;;;0.85;0.70;;;19.80;35.80;;;;;;5072461;28;20415;-75
2020/12/11 06:41:27;;;;;;;1.27;0.70;;;19.80;35.80;;;;;;5041939;28;20033;-74
2020/12/11 06:43:56;;;;;;;1.63;0.80;;;19.80;35.80;;;;;;5063382;28;20020;-75
2020/12/11 06:46:27;;;;;;;0.82;0.70;;;19.80;35.80;;;;;;5061636;28;20477;-74
2020/12/11 06:49:12;;;;;;;1.05;0.90;;;19.80;35.80;;;;;;5035721;28;20116;-74
2020/12/11 06:51:46;;;;;;;1.55;0.75;;;19.90;35.90;;;;;;5058294;28;20025;-75
2020/12/11 06:54:12;;;;;;;0.65;0.57;;;19.90;35.80;;;;;;5054041;28;20029;-74
2020/12/11 06:56:41;;;;;;;0.47;0.47;;;19.90;35.70;;;;;;5040690;28;20048;-74
2020/12/11 06:59:25;;;;;;;1.02;0.60;;;19.90;35.80;;;;;;5037122;28;20033;-74
2020/12/11 07:01:54;;;;;;;1.08;0.70;;;19.90;35.90;;;;;;5065852;28;20060;-74
2020/12/11 07:04:20;;;;;;;1.73;0.60;;;19.90;35.90;;;;;;5067463;28;20037;-75
2020/12/11 07:06:49;;;;;;;0.73;0.50;;;19.90;35.80;;;;;;5072690;28;20395;-75
2020/12/11 07:09:15;;;;;;;1.33;0.57;;;20.00;35.90;;;;;;5072451;28;20369;-80
2020/12/11 07:15:15;;;;;;;0.70;0.32;;;20.00;36.00;;;;;;5071014;28;20089;-74
2020/12/11 07:17:41;;;;;;;1.05;0.57;;;20.00;36.10;;;;;;5061312;28;20021;-74
2020/12/11 07:20:08;;;;;;;1.88;0.65;;;20.00;36.10;;;;;;5048521;28;20040;-74
2020/12/11 07:22:33;;;;;;;1.10;0.63;;;20.00;36.40;;;;;;5044025;28;20400;-75
2020/12/11 07:25:02;;;;;;;1.13;0.65;;;20.00;36.30;;;;;;5058432;28;20097;-74
2020/12/11 07:27:28;;;;;;;0.73;0.60;;;20.00;36.30;;;;;;5049011;28;20062;-72
2020/12/11 07:29:54;;;;;;;1.58;0.63;;;19.90;36.20;;;;;;5053902;28;20013;-70
2020/12/11 07:32:20;;;;;;;0.82;0.47;;;19.90;36.20;;;;;;5053957;28;20404;-72
2020/12/11 07:34:46;;;;;;;0.80;0.60;;;20.00;36.30;;;;;;5036626;28;20025;-73
2020/12/11 07:37:11;;;;;;;0.57;0.57;;;20.00;36.50;;;;;;5040232;28;20040;-75
2020/12/11 07:39:37;;;;;;;0.77;0.50;;;20.10;36.30;;;;;;5051549;28;20576;-75
2020/12/11 07:42:04;;;;;;;3.47;0.68;;;20.10;36.30;;;;;;5060311;28;20025;-75
2020/12/11 07:44:31;;;;;;;0.40;0.35;;;20.10;36.20;;;;;;5037422;28;20443;-75
2020/12/11 07:47:06;;;;;;;0.50;0.40;;;20.10;36.80;;;;;;5024791;28;20504;-74
2020/12/11 07:49:38;;;;;;;0.75;0.68;;;20.10;36.20;;;;;;5044745;28;20496;-73
2020/12/11 07:52:04;;;;;;;0.60;0.60;;;20.10;36.20;;;;;;5054846;28;20082;-74
2020/12/11 07:54:37;;;;;;;0.50;0.50;;;20.10;36.20;;;;;;5046495;28;20048;-72
2020/12/11 07:57:15;;;;;;;0.80;0.45;;;20.10;36.10;;;;;;5054429;28;20043;-72
2020/12/11 08:00:04;;;;;;;0.70;0.50;;;20.10;36.90;;;;;;5069737;28;20032;-72
2020/12/11 08:02:31;;;;;;;0.30;0.30;;;20.10;36.20;;;;;;5050729;28;20420;-72
2020/12/11 08:04:57;;;;;;;1.17;0.45;;;20.10;36.20;;;;;;5030232;28;20083;-72
2020/12/11 08:07:29;;;;;;;0.85;0.60;;;20.00;36.00;;;;;;5047530;28;20033;-73
2020/12/11 08:10:15;;;;;;;1.30;0.50;;;20.10;36.10;;;;;;5056953;28;20019;-72
2020/12/11 08:12:41;;;;;;;3.33;0.70;;;20.10;36.00;;;;;;5039711;28;20043;-71
2020/12/11 08:15:07;;;;;;;0.47;0.38;;;20.10;36.30;;;;;;5045255;28;20025;-70
2020/12/11 08:17:33;;;;;;;0.40;0.40;;;20.10;36.20;;;;;;5060064;28;20041;-71
2020/12/11 08:20:00;;;;;;;0.77;0.40;;;20.10;36.20;;;;;;5046632;28;20158;-72
2020/12/11 08:22:36;;;;;;;0.32;0.32;;;20.10;36.00;;;;;;5069807;28;20022;-72
2020/12/11 08:25:21;;;;;;;0.30;0.30;;;20.20;36.00;;;;;;5039849;28;20037;-71
2020/12/11 08:27:47;;;;;;;0.63;0.50;;;20.20;35.90;;;;;;5042711;28;20467;-73
2020/12/11 08:30:16;;;;;;;1.23;0.63;;;20.10;36.00;;;;;;5037958;28;20048;-74
2020/12/11 08:32:42;;;;;;;1.38;0.47;;;20.10;36.10;;;;;;5047203;28;20400;-72
2020/12/11 08:35:21;;;;;;;0.50;0.50;;;20.10;36.00;;;;;;5035295;28;20020;-72
2020/12/11 08:37:53;;;;;;;0.47;0.47;;;20.00;36.10;;;;;;5049198;28;20032;-73
2020/12/11 08:40:19;;;;;;;0.77;0.60;;;20.10;36.50;;;;;;5045903;28;20020;-74
2020/12/11 08:43:41;;;;;;;1.05;0.55;;;20.10;36.40;;;;;;5069453;28;20404;-74
2020/12/11 08:46:20;;;;;;;0.40;0.40;;;20.10;36.30;;;;;;5046229;28;20032;-75
2020/12/11 08:49:30;;;;;;;0.20;0.20;;;20.10;36.40;;;;;;5052139;28;20024;-74
2020/12/11 08:51:44;;;;;;;1.17;0.63;;;20.10;36.40;;;;;;5046155;28;20029;-75
2020/12/11 08:54:10;;;;;;;1.13;0.40;;;20.10;36.40;;;;;;5036762;28;20045;-74
2020/12/11 08:56:36;;;;;;;0.38;0.38;;;20.00;36.40;;;;;;5067556;28;20103;-74
2020/12/11 08:59:02;;;;;;;0.70;0.57;;;20.00;36.50;;;;;;5049468;28;20111;-73
2020/12/11 09:01:27;;;;;;;0.43;0.43;;;20.00;36.40;;;;;;5048559;28;20025;-73
2020/12/11 09:03:53;;;;;;;0.30;0.30;;;20.10;36.40;;;;;;5062183;28;20104;-73
2020/12/11 09:06:18;;;;;;;0.63;0.52;;;20.10;37.20;;;;;;5064857;28;20550;-73
2020/12/11 09:08:44;;;;;;;0.98;0.40;;;20.00;36.60;;;;;;5061691;28;20500;-73
2020/12/11 09:11:10;;;;;;;0.98;0.40;;;20.00;36.50;;;;;;5051926;28;20020;-74
2020/12/11 09:13:35;;;;;;;0.60;0.60;;;20.00;36.50;;;;;;5045944;28;20071;-73
2020/12/11 09:16:01;;;;;;;1.95;0.50;;;20.00;36.60;;;;;;5075853;28;20037;-73
2020/12/11 09:18:27;;;;;;;0.60;0.50;;;20.00;36.60;;;;;;5055781;28;20559;-74
2020/12/11 09:20:52;;;;;;;0.80;0.40;;;20.00;36.70;;;;;;5037127;28;20033;-74
2020/12/11 09:23:18;;;;;;;0.28;0.28;;;20.00;36.90;;;;;;5054920;28;20052;-74
2020/12/11 09:25:43;;;;;;;0.60;0.50;;;20.10;36.80;;;;;;5039983;28;20504;-73
2020/12/11 09:28:55;;;;;;;1.08;0.43;;;20.00;36.90;;;;;;5047744;28;20496;-73
2020/12/11 09:31:22;;;;;;;0.40;0.30;;;20.00;36.90;;;;;;5070978;28;20024;-73
2020/12/11 09:33:48;;;;;;;0.80;0.50;;;20.00;36.90;;;;;;5038792;28;20032;-73
2020/12/11 09:36:13;;;;;;;0.30;0.30;;;20.00;36.90;;;;;;5044034;28;20029;-73
2020/12/11 09:38:39;;;;;;;2.17;0.43;;;20.00;36.90;;;;;;5063446;28;20029;-73
2020/12/11 09:41:06;;;;;;;0.40;0.30;;;20.00;37.00;;;;;;5067638;28;20029;-73
2020/12/11 09:43:59;;;;;;;0.40;0.40;;;20.00;36.90;;;;;;5055480;28;20585;-74
2020/12/11 09:48:56;;;;;;;0.57;0.40;;;20.00;37.00;;;;;;5038431;28;20108;-75
2020/12/11 09:54:14;;;;;;;0.95;0.40;;;20.00;37.00;;;;;;5040625;28;20040;-73
2020/12/11 09:56:42;;;;;;;0.88;0.25;;;20.00;37.70;;;;;;5056228;28;20020;-73
2020/12/11 09:59:16;;;;;;;0.45;0.30;;;20.00;37.00;;;;;;5050648;28;20056;-73
2020/12/11 10:04:16;;;;;;;0.45;0.40;;;20.00;37.80;;;;;;5056296;28;20029;-74
2020/12/11 10:06:42;;;;;;;0.70;0.32;;;20.00;37.30;;;;;;5052142;28;20082;-74
2020/12/11 10:09:10;;;;;;;0.77;0.40;;;20.00;37.40;;;;;;5050938;28;20507;-74
2020/12/11 10:11:35;;;;;;;0.68;0.40;;;20.00;37.40;;;;;;5039854;28;20025;-74
2020/12/11 10:14:14;;;;;;;0.85;0.45;;;20.00;37.40;;;;;;5042537;28;20043;-74
2020/12/11 10:16:40;;;;;;;0.30;0.30;;;19.90;37.30;;;;;;5033448;28;20082;-73
2020/12/11 10:19:06;;;;;;;0.47;0.47;;;19.90;37.30;;;;;;5061186;28;20029;-73
2020/12/11 10:21:31;;;;;;;0.45;0.40;;;19.90;37.40;;;;;;5036409;28;20036;-74
2020/12/11 10:23:57;;;;;;;0.22;0.22;;;19.90;37.30;;;;;;5062620;28;20140;-73
2020/12/11 10:26:22;;;;;;;0.70;0.38;;;19.90;37.30;;;;;;5039464;28;20052;-73
2020/12/11 10:28:48;;;;;;;0.55;0.30;;;20.00;37.40;;;;;;5062255;28;20025;-73
2020/12/11 10:31:13;;;;;;;0.90;0.40;;;20.00;37.50;;;;;;5062492;28;20042;-74
2020/12/11 10:33:39;;;;;;;0.47;0.30;;;20.00;37.50;;;;;;5063095;28;20091;-74
2020/12/11 10:36:05;;;;;;;0.47;0.35;;;20.00;37.50;;;;;;5055742;28;20095;-74
2020/12/11 10:38:30;;;;;;;0.98;0.40;;;20.00;37.60;;;;;;5043426;28;20504;-74
2020/12/11 10:41:49;;;;;;;0.80;0.30;;;20.10;37.60;;;;;;5056746;28;20581;-74
2020/12/11 10:44:14;;;;;;;0.32;0.20;;;20.10;37.70;;;;;;5054477;28;20045;-74
2020/12/11 10:46:40;;;;;;;0.25;0.15;;;20.00;37.80;;;;;;5036604;28;20032;-73
2020/12/11 10:49:05;;;;;;;1.90;0.47;;;20.00;37.80;;;;;;5068928;28;20072;-73
2020/12/11 10:51:31;;;;;;;0.20;0.20;;;20.10;37.80;;;;;;5059000;28;20025;-73
2020/12/11 10:53:57;;;;;;;0.20;0.20;;;20.10;37.80;;;;;;5040575;28;20151;-74
2020/12/11 10:56:25;;;;;;;0.20;0.20;;;20.10;37.90;;;;;;5055980;28;20085;-74
2020/12/11 10:58:51;;;;;;;0.30;0.30;;;20.00;37.90;;;;;;5056685;28;20111;-75
2020/12/11 11:01:17;;;;;;;0.35;0.35;;;20.10;37.90;;;;;;5055692;28;20158;-74
2020/12/11 11:03:42;;;;;;;2.38;0.30;;;20.10;38.00;;;;;;5041968;28;20032;-74
2020/12/11 11:12:14;;;;;;;0.68;0.20;;;20.10;38.00;;;;;;5074387;28;20120;-75
2020/12/11 11:22:53;;;;;;;0.20;0.20;;;20.20;38.10;;;;;;5052094;28;20086;-74
2020/12/11 11:27:58;;;;;;;1.00;0.35;;;20.20;38.10;;;;;;5063546;28;20040;-75
2020/12/11 11:30:26;;;;;;;0.60;0.32;;;20.20;38.10;;;;;;5025113;28;20045;-75
2020/12/11 11:32:51;;;;;;;0.30;0.20;;;20.20;38.10;;;;;;5036165;28;20119;-75
2020/12/11 11:35:17;;;;;;;0.40;0.40;;;20.20;38.10;;;;;;5040798;28;20457;-75
2020/12/11 11:37:43;;;;;;;0.20;0.20;;;20.20;38.20;;;;;;5038636;28;20098;-75
2020/12/11 11:40:09;;;;;;;0.25;0.25;;;20.20;38.30;;;;;;5047505;28;20029;-75
2020/12/11 11:42:34;;;;;;;0.32;0.17;;;20.20;38.30;;;;;;5025660;28;20447;-75
2020/12/11 11:45:04;;;;;;;0.30;0.30;;;20.20;38.60;;;;;;5053447;28;20061;-74
2020/12/11 11:47:30;;;;;;;0.10;0.10;;;20.30;38.30;;;;;;5057368;28;20441;-74
2020/12/11 11:50:16;;;;;;;0.73;0.38;;;20.20;38.40;;;;;;5046927;28;20048;-73
2020/12/11 11:55:16;;;;;;;0.30;0.25;;;20.20;38.40;;;;;;5038209;28;20041;-75
2020/12/11 11:57:41;;;;;;;0.30;0.30;;;20.20;38.40;;;;;;5045368;28;20029;-74
2020/12/11 12:00:08;;;;;;;0.47;0.40;;;20.30;38.50;;;;;;5071725;28;20020;-74
2020/12/11 12:02:34;;;;;;;0.40;0.40;;;20.30;38.50;;;;;;5039083;28;20025;-74
2020/12/11 12:05:01;;;;;;;4.03;0.50;;;20.30;38.50;;;;;;5053335;28;20047;-75
2020/12/11 12:07:27;;;;;;;0.70;0.30;;;20.30;38.60;;;;;;5045047;28;20384;-74
2020/12/11 12:09:53;;;;;;;0.45;0.43;;;20.30;38.60;;;;;;5070376;28;20025;-74
2020/12/11 12:12:19;;;;;;;0.80;0.28;;;20.30;38.60;;;;;;5052258;28;20047;-74
2020/12/11 12:14:46;;;;;;;0.75;0.30;;;20.30;38.60;;;;;;5050175;28;20041;-74
2020/12/11 12:17:12;;;;;;;1.05;0.40;;;20.30;39.30;;;;;;5072653;28;20099;-73
2020/12/11 12:19:42;;;;;;;0.30;0.30;;;20.30;38.80;;;;;;5056834;28;20057;-74
2020/12/11 12:29:54;;;;;;;0.30;0.30;;;20.30;38.90;;;;;;5038522;28;20028;-75
2020/12/11 12:32:20;;;;;;;0.93;0.30;;;20.30;38.90;;;;;;5029804;28;20047;-73
2020/12/11 12:34:50;;;;;;;0.22;0.20;;;20.30;38.90;;;;;;5050621;28;20045;-75
2020/12/11 12:43:02;;;;;;;0.52;0.30;;;20.30;38.90;;;;;;5060185;28;20105;-74
2020/12/11 12:45:27;;;;;;;0.45;0.25;;;20.30;39.00;;;;;;5059647;28;20107;-75
2020/12/11 12:47:53;;;;;;;2.47;0.60;;;20.30;38.90;;;;;;5056383;28;20507;-74
2020/12/11 12:50:19;;;;;;;0.65;0.40;;;20.40;39.00;;;;;;5038704;28;20025;-74
2020/12/11 12:52:44;;;;;;;1.40;0.30;;;20.30;38.90;;;;;;5056162;28;20397;-74
2020/12/11 12:55:13;;;;;;;0.70;0.30;;;20.30;39.00;;;;;;5051508;28;20415;-74
2020/12/11 12:57:51;;;;;;;0.38;0.35;;;20.40;39.10;;;;;;5053810;28;20056;-74
2020/12/11 13:00:26;;;;;;;0.38;0.38;;;20.40;39.10;;;;;;5038828;28;20040;-74
2020/12/11 13:05:35;;;;;;;0.28;0.20;;;20.50;38.90;;;;;;5040211;28;20116;-78
2020/12/11 13:08:02;;;;;;;1.48;0.30;;;20.50;38.80;;;;;;5064789;28;20024;-75
2020/12/11 13:10:30;;;;;;;0.65;0.20;;;20.50;38.80;;;;;;5072481;28;20108;-75
2020/12/11 13:13:08;;;;;;;0.20;0.15;;;20.60;38.80;;;;;;5050428;28;20518;-74
2020/12/11 13:15:35;;;;;;;0.65;0.20;;;20.60;38.80;;;;;;5062626;28;20044;-74
2020/12/11 13:18:04;;;;;;;0.40;0.20;;;20.60;38.80;;;;;;5049748;28;20033;-73
2020/12/11 13:20:33;;;;;;;1.27;0.35;;;20.60;38.80;;;;;;5063537;28;20028;-73
2020/12/11 13:26:13;;;;;;;0.50;0.40;;;20.60;38.90;;;;;;5035579;28;20095;-74
2020/12/11 13:28:31;;;;;;;0.22;0.22;;;20.60;38.90;;;;;;5056954;28;20025;-74
2020/12/11 13:30:56;;;;;;;0.32;0.32;;;20.50;39.00;;;;;;5081543;28;20020;-74
2020/12/11 13:33:22;;;;;;;0.32;0.20;;;20.50;39.00;;;;;;5046182;28;20522;-73
2020/12/11 13:35:47;;;;;;;0.47;0.40;;;20.50;39.00;;;;;;5054134;28;20040;-73
2020/12/11 13:38:13;;;;;;;0.22;0.20;;;20.50;39.00;;;;;;5030407;28;20045;-73
2020/12/11 13:40:39;;;;;;;0.73;0.30;;;20.50;39.10;;;;;;5076560;28;20021;-74
2020/12/11 13:43:07;;;;;;;0.52;0.40;;;20.50;39.20;;;;;;5053190;28;20469;-74
2020/12/11 13:45:33;;;;;;;0.25;0.25;;;20.50;39.20;;;;;;5061030;28;20036;-74
2020/12/11 13:47:59;;;;;;;0.40;0.40;;;20.50;39.20;;;;;;5074557;28;20388;-74